createdAt,value
2022-10-18T00:01:08.812Z,34.58
2022-10-18T00:03:37.448Z,33.00
2022-10-18T00:06:06.486Z,34.10
2022-10-18T00:08:34.773Z,34.88
2022-10-18T00:11:03.100Z,36.15
2022-10-18T00:13:31.386Z,34.88
2022-10-18T00:16:02.823Z,31.00
2022-10-18T00:18:31.558Z,33.15
2022-10-18T00:21:01.430Z,34.53
2022-10-18T00:23:30.634Z,34.00
2022-10-18T00:26:09.636Z,31.90
2022-10-18T00:28:39.452Z,34.15
2022-10-18T00:31:14.525Z,36.45
2022-10-18T00:33:43.740Z,35.67
2022-10-18T00:36:11.980Z,38.05
2022-10-18T00:38:40.261Z,36.97
2022-10-18T00:41:10.175Z,37.33
2022-10-18T00:43:57.064Z,37.83
2022-10-18T00:46:28.788Z,32.25
2022-10-18T00:48:58.397Z,36.65
2022-10-18T00:51:32.364Z,36.50
2022-10-18T00:54:00.640Z,38.20
2022-10-18T00:56:29.666Z,38.63
2022-10-18T00:58:59.210Z,33.70
2022-10-18T01:01:28.929Z,35.30
2022-10-18T01:03:58.503Z,36.40
2022-10-18T01:06:28.807Z,35.30
2022-10-18T01:09:11.200Z,38.33
2022-10-18T01:12:06.135Z,37.90
2022-10-18T01:14:45.019Z,37.85
2022-10-18T01:17:18.928Z,34.78
2022-10-18T01:20:18.907Z,34.15
2022-10-18T01:22:52.080Z,38.15
2022-10-18T01:25:39.139Z,32.83
2022-10-18T01:28:16.951Z,38.08
2022-10-18T01:30:53.099Z,33.50
2022-10-18T01:33:36.392Z,36.88
2022-10-18T01:36:10.872Z,34.85
2022-10-18T01:38:40.771Z,35.85
2022-10-18T01:41:14.913Z,30.35
2022-10-18T01:43:46.516Z,31.15
2022-10-18T01:46:20.230Z,40.33
2022-10-18T01:48:48.995Z,32.83
2022-10-18T01:51:20.220Z,30.92
2022-10-18T01:53:48.380Z,34.65
2022-10-18T01:56:38.751Z,31.63
2022-10-18T01:59:35.736Z,38.30
2022-10-18T02:02:13.964Z,32.80
2022-10-18T02:04:47.765Z,35.95
2022-10-18T02:07:23.760Z,28.60
2022-10-18T02:10:02.569Z,35.75
2022-10-18T02:12:33.587Z,39.25
2022-10-18T02:15:03.542Z,38.47
2022-10-18T02:17:33.779Z,40.72
2022-10-18T02:20:03.453Z,40.13
2022-10-18T02:22:34.642Z,35.70
2022-10-18T02:25:06.341Z,40.97
2022-10-18T02:27:34.786Z,35.20
2022-10-18T02:30:03.118Z,34.40
2022-10-18T02:32:36.334Z,31.55
2022-10-18T02:35:08.077Z,32.88
2022-10-18T02:37:39.851Z,36.50
2022-10-18T02:40:11.179Z,34.78
2022-10-18T02:42:41.399Z,32.20
2022-10-18T02:45:09.944Z,24.23
2022-10-18T02:47:39.409Z,23.67
2022-10-18T02:50:08.215Z,26.15
2022-10-18T02:52:36.432Z,28.60
2022-10-18T02:55:05.781Z,25.13
2022-10-18T02:57:34.491Z,28.92
2022-10-18T03:00:02.981Z,31.15
2022-10-18T03:02:31.155Z,20.38
2022-10-18T03:05:00.684Z,27.27
2022-10-18T03:07:29.409Z,17.48
2022-10-18T03:09:57.860Z,24.30
2022-10-18T03:12:26.045Z,20.52
2022-10-18T03:14:54.299Z,26.00
2022-10-18T03:17:22.371Z,24.35
2022-10-18T03:19:50.760Z,21.63
2022-10-18T03:22:20.255Z,20.05
2022-10-18T03:24:48.744Z,30.13
2022-10-18T03:27:16.965Z,20.92
2022-10-18T03:29:45.329Z,24.92
2022-10-18T03:32:13.574Z,24.55
2022-10-18T03:34:41.750Z,19.98
2022-10-18T03:37:10.450Z,30.85
2022-10-18T03:39:39.951Z,30.08
2022-10-18T03:42:08.268Z,22.63
2022-10-18T03:44:36.518Z,28.00
2022-10-18T03:47:05.042Z,30.13
2022-10-18T03:52:06.542Z,22.80
2022-10-18T03:54:34.674Z,26.88
2022-10-18T03:57:04.364Z,29.58
2022-10-18T03:59:32.739Z,26.58
2022-10-18T04:02:01.075Z,17.42
2022-10-18T04:04:29.299Z,27.58
2022-10-18T04:06:57.480Z,24.40
2022-10-18T04:09:25.850Z,24.60
2022-10-18T04:11:54.258Z,27.50
2022-10-18T04:14:23.682Z,26.70
2022-10-18T04:16:52.192Z,23.98
2022-10-18T04:19:20.742Z,35.22
2022-10-18T04:21:49.014Z,22.05
2022-10-18T04:24:18.123Z,25.23
2022-10-18T04:26:46.584Z,32.60
2022-10-18T04:29:14.868Z,22.23
2022-10-18T04:31:44.388Z,25.23
2022-10-18T04:34:12.787Z,24.60
2022-10-18T04:36:41.168Z,27.25
2022-10-18T04:39:09.445Z,22.35
2022-10-18T04:41:37.703Z,27.65
2022-10-18T04:44:06.452Z,22.38
2022-10-18T04:46:34.779Z,23.75
2022-10-18T04:49:04.555Z,26.30
2022-10-18T04:51:32.941Z,28.13
2022-10-18T04:54:01.171Z,38.73
2022-10-18T04:56:29.884Z,32.20
2022-10-18T04:58:58.996Z,18.23
2022-10-18T05:01:27.353Z,22.80
2022-10-18T05:03:55.986Z,21.43
2022-10-18T05:06:25.862Z,23.33
2022-10-18T05:08:54.084Z,27.23
2022-10-18T05:11:22.255Z,24.40
2022-10-18T05:13:51.009Z,25.33
2022-10-18T05:16:19.378Z,27.10
2022-10-18T05:18:47.755Z,38.33
2022-10-18T05:21:16.109Z,31.60
2022-10-18T05:23:45.711Z,35.77
2022-10-18T05:26:14.289Z,38.70
2022-10-18T05:28:42.693Z,35.07
2022-10-18T05:31:12.063Z,30.30
2022-10-18T05:33:40.491Z,44.00
2022-10-18T05:36:09.966Z,26.07
2022-10-18T05:38:40.186Z,28.37
2022-10-18T05:41:10.160Z,21.00
2022-10-18T05:43:38.357Z,29.07
2022-10-18T05:46:13.632Z,31.23
2022-10-18T05:48:43.874Z,24.07
2022-10-18T05:51:12.281Z,26.83
2022-10-18T05:53:40.643Z,34.83
2022-10-18T05:56:12.425Z,26.40
2022-10-18T05:58:41.155Z,32.10
2022-10-18T06:01:10.256Z,21.07
2022-10-18T06:03:38.606Z,27.93
2022-10-18T06:06:08.264Z,26.20
2022-10-18T06:08:37.123Z,32.53
2022-10-18T06:11:09.810Z,25.80
2022-10-18T06:13:42.175Z,22.00
2022-10-18T06:16:11.983Z,19.43
2022-10-18T06:18:40.296Z,25.87
2022-10-18T06:21:09.405Z,32.37
2022-10-18T06:23:38.528Z,38.33
2022-10-18T06:26:11.425Z,21.47
2022-10-18T06:28:40.144Z,29.50
2022-10-18T06:31:08.723Z,20.20
2022-10-18T06:33:37.600Z,25.50
2022-10-18T06:36:07.223Z,31.17
2022-10-18T06:38:35.982Z,24.63
2022-10-18T06:41:05.320Z,32.23
2022-10-18T06:43:34.951Z,35.13
2022-10-18T06:46:05.110Z,30.20
2022-10-18T06:48:33.344Z,27.00
2022-10-18T06:51:02.919Z,21.83
2022-10-18T06:53:32.911Z,24.10
2022-10-18T06:56:02.368Z,26.30
2022-10-18T06:58:30.913Z,41.97
2022-10-18T07:01:00.828Z,26.87
2022-10-18T07:03:29.474Z,34.43
2022-10-18T07:06:02.543Z,29.33
2022-10-18T07:08:31.304Z,27.27
2022-10-18T07:10:59.716Z,31.63
2022-10-18T07:13:33.010Z,31.20
2022-10-18T07:16:05.696Z,30.63
2022-10-18T07:18:35.527Z,35.33
2022-10-18T07:21:04.604Z,27.40
2022-10-18T07:23:34.023Z,25.97
2022-10-18T07:26:02.767Z,35.57
2022-10-18T07:28:31.568Z,31.47
2022-10-18T07:31:07.314Z,37.00
2022-10-18T07:33:35.657Z,38.83
2022-10-18T07:36:04.814Z,37.50
2022-10-18T07:38:33.522Z,39.63
2022-10-18T07:41:02.446Z,40.17
2022-10-18T07:43:30.537Z,39.70
2022-10-18T07:46:00.269Z,54.33
2022-10-18T07:48:30.094Z,51.70
2022-10-18T07:51:00.927Z,46.43
2022-10-18T07:53:29.662Z,46.67
2022-10-18T07:56:03.535Z,46.33
2022-10-18T07:58:34.775Z,50.93
2022-10-18T08:01:04.692Z,48.30
2022-10-18T08:03:34.336Z,51.47
2022-10-18T08:06:02.915Z,44.67
2022-10-18T08:08:31.430Z,54.87
2022-10-18T08:11:03.956Z,51.00
2022-10-18T08:13:32.387Z,51.90
2022-10-18T08:16:06.133Z,41.30
2022-10-18T08:18:35.954Z,52.17
2022-10-18T08:21:05.148Z,60.97
2022-10-18T08:23:33.700Z,46.80
2022-10-18T08:26:03.181Z,51.33
2022-10-18T08:28:31.482Z,48.08
2022-10-18T08:31:04.185Z,51.47
2022-10-18T08:33:32.514Z,38.83
2022-10-18T08:36:05.741Z,37.35
2022-10-18T08:38:34.287Z,36.72
2022-10-18T08:41:15.768Z,36.05
2022-10-18T08:43:48.245Z,43.45
2022-10-18T08:46:16.725Z,39.45
2022-10-18T08:48:49.665Z,35.55
2022-10-18T08:51:28.905Z,45.40
2022-10-18T08:54:03.945Z,37.17
2022-10-18T08:56:34.408Z,41.42
2022-10-18T08:59:04.771Z,32.03
2022-10-18T09:01:41.789Z,28.83
2022-10-18T09:04:27.636Z,27.88
2022-10-18T09:07:13.773Z,26.90
2022-10-18T09:09:47.648Z,22.88
2022-10-18T09:12:42.761Z,24.63
2022-10-18T09:15:17.027Z,23.55
2022-10-18T09:17:58.275Z,22.15
2022-10-18T09:20:28.979Z,21.17
2022-10-18T09:23:05.357Z,20.80
2022-10-18T09:25:38.414Z,25.20
2022-10-18T09:28:17.455Z,17.58
2022-10-18T09:30:55.904Z,18.60
2022-10-18T09:33:41.704Z,19.38
2022-10-18T09:36:12.027Z,20.52
2022-10-18T09:38:46.464Z,17.15
2022-10-18T09:41:21.683Z,21.48
2022-10-18T09:43:55.615Z,20.02
2022-10-18T09:46:28.130Z,19.60
2022-10-18T09:49:00.385Z,15.48
2022-10-18T09:51:34.700Z,17.75
2022-10-18T09:54:21.580Z,13.30
2022-10-18T09:56:53.222Z,14.88
2022-10-18T09:59:38.374Z,15.73
2022-10-18T10:02:07.427Z,16.88
2022-10-18T10:04:35.735Z,18.20
2022-10-18T10:07:07.938Z,19.42
2022-10-18T10:09:45.021Z,15.90
2022-10-18T10:12:31.356Z,15.57
2022-10-18T10:15:11.140Z,14.95
2022-10-18T10:17:39.366Z,12.48
2022-10-18T10:20:18.919Z,15.02
2022-10-18T10:22:48.624Z,17.35
2022-10-18T10:25:30.147Z,10.98
2022-10-18T10:28:03.869Z,15.95
2022-10-18T10:30:33.964Z,11.30
2022-10-18T10:33:02.500Z,16.45
2022-10-18T10:35:52.693Z,16.67
2022-10-18T10:38:25.984Z,16.67
2022-10-18T10:40:55.978Z,15.95
2022-10-18T10:43:42.554Z,17.90
2022-10-18T10:46:13.805Z,14.23
2022-10-18T10:48:48.052Z,13.85
2022-10-18T10:51:17.930Z,13.60
2022-10-18T10:53:52.240Z,13.95
2022-10-18T10:56:26.265Z,14.63
2022-10-18T10:58:56.535Z,13.93
2022-10-18T11:01:28.051Z,15.50
2022-10-18T11:03:58.529Z,14.23
2022-10-18T11:06:43.522Z,12.88
2022-10-18T11:09:41.948Z,12.95
2022-10-18T11:12:21.169Z,15.40
2022-10-18T11:14:55.614Z,12.13
2022-10-18T11:17:31.140Z,21.73
2022-10-18T11:20:22.465Z,17.67
2022-10-18T11:23:00.568Z,12.52
2022-10-18T11:25:44.798Z,13.07
2022-10-18T11:28:24.044Z,13.88
2022-10-18T11:31:06.293Z,18.15
2022-10-18T11:34:08.172Z,11.65
2022-10-18T11:36:49.395Z,11.35
2022-10-18T11:39:42.832Z,10.07
2022-10-18T11:42:20.192Z,15.27
2022-10-18T11:44:58.569Z,10.15
2022-10-18T11:47:33.411Z,13.65
2022-10-18T11:50:11.423Z,15.20
2022-10-18T11:52:45.939Z,16.58
2022-10-18T11:55:27.663Z,12.10
2022-10-18T11:58:05.723Z,11.00
2022-10-18T12:00:48.702Z,14.75
2022-10-18T12:03:35.947Z,10.57
2022-10-18T12:06:11.251Z,9.85
2022-10-18T12:08:43.531Z,9.40
2022-10-18T12:11:16.673Z,10.95
2022-10-18T12:13:49.617Z,15.60
2022-10-18T12:16:33.781Z,12.77
2022-10-18T12:19:23.439Z,14.10
2022-10-18T12:21:57.661Z,17.08
2022-10-18T12:24:29.319Z,14.80
2022-10-18T12:27:01.543Z,10.57
2022-10-18T12:29:34.701Z,7.43
2022-10-18T12:32:10.000Z,20.58
2022-10-18T12:34:43.483Z,11.05
2022-10-18T12:37:40.892Z,11.77
2022-10-18T12:40:20.269Z,8.45
2022-10-18T12:42:51.936Z,9.45
2022-10-18T12:45:33.415Z,12.70
2022-10-18T12:48:06.044Z,11.65
2022-10-18T12:50:37.113Z,13.18
2022-10-18T12:53:08.923Z,9.93
2022-10-18T12:55:38.749Z,7.22
2022-10-18T12:58:24.972Z,12.15
2022-10-18T13:00:54.719Z,9.35
2022-10-18T13:03:53.664Z,14.13
2022-10-18T13:06:23.030Z,14.30
2022-10-18T13:09:17.312Z,9.65
2022-10-18T13:11:45.933Z,7.72
2022-10-18T13:14:59.069Z,11.60
2022-10-18T13:17:37.981Z,12.07
2022-10-18T13:20:26.536Z,14.98
2022-10-18T13:23:06.752Z,11.55
2022-10-18T13:25:46.503Z,11.75
2022-10-18T13:28:25.518Z,10.88
2022-10-18T13:30:57.074Z,9.68
2022-10-18T13:33:32.879Z,15.75
2022-10-18T13:36:05.126Z,12.38
2022-10-18T13:38:40.927Z,13.10
2022-10-18T13:41:11.285Z,16.23
2022-10-18T13:44:19.757Z,13.00
2022-10-18T13:47:36.178Z,10.38
2022-10-18T13:50:33.912Z,10.20
2022-10-18T13:53:31.659Z,10.20
2022-10-18T13:56:21.118Z,10.48
2022-10-18T13:59:14.296Z,13.10
2022-10-18T14:02:01.822Z,9.23
2022-10-18T14:05:23.414Z,8.82
2022-10-18T14:07:53.474Z,8.23
2022-10-18T14:10:43.740Z,11.93
2022-10-18T14:13:22.355Z,10.88
2022-10-18T14:15:54.214Z,10.25
2022-10-18T14:18:30.039Z,10.98
2022-10-18T14:21:21.995Z,10.00
2022-10-18T14:23:52.131Z,11.13
2022-10-18T14:26:22.880Z,8.23
2022-10-18T14:29:04.644Z,9.95
2022-10-18T14:31:33.376Z,10.77
2022-10-18T14:34:02.044Z,7.22
2022-10-18T14:36:36.302Z,16.08
2022-10-18T14:39:07.014Z,12.30
2022-10-18T14:41:38.522Z,12.57
2022-10-18T14:44:19.575Z,9.82
2022-10-18T14:46:49.731Z,18.10
2022-10-18T14:49:19.241Z,9.52
2022-10-18T14:51:50.673Z,8.77
2022-10-18T14:54:21.061Z,11.40
2022-10-18T14:56:51.267Z,15.35
2022-10-18T14:59:22.668Z,12.80
2022-10-18T15:01:57.920Z,10.90
2022-10-18T15:04:32.629Z,8.65
2022-10-18T15:07:03.193Z,10.27
2022-10-18T15:09:32.838Z,12.00
2022-10-18T15:12:04.670Z,14.25
2022-10-18T15:14:33.355Z,6.68
2022-10-18T15:17:04.513Z,10.93
2022-10-18T15:19:35.279Z,9.55
2022-10-18T15:25:15.691Z,12.40
2022-10-18T15:27:47.720Z,13.63
2022-10-18T15:30:20.002Z,8.60
2022-10-18T15:32:50.759Z,10.80
2022-10-18T15:35:26.066Z,13.18
2022-10-18T15:37:56.143Z,13.18
2022-10-18T15:40:42.316Z,9.50
2022-10-18T15:43:40.450Z,12.00
2022-10-18T15:46:30.809Z,8.02
2022-10-18T15:49:21.957Z,12.15
2022-10-18T15:51:52.087Z,7.28
2022-10-18T15:54:30.238Z,7.25
2022-10-18T15:56:59.056Z,7.70
2022-10-18T15:59:30.823Z,10.55
2022-10-18T16:01:59.343Z,7.43
2022-10-18T16:04:29.603Z,9.48
2022-10-18T16:06:59.049Z,7.82
2022-10-18T16:09:28.818Z,14.45
2022-10-18T16:11:58.262Z,8.63
2022-10-18T16:14:28.586Z,9.48
2022-10-18T16:17:02.941Z,6.57
2022-10-18T16:19:32.044Z,7.63
2022-10-18T16:22:05.989Z,10.68
2022-10-18T16:24:34.872Z,14.38
2022-10-18T16:27:03.705Z,7.50
2022-10-18T16:29:33.211Z,7.03
2022-10-18T16:32:01.640Z,8.98
2022-10-18T16:34:32.106Z,8.02
2022-10-18T16:37:00.589Z,10.30
2022-10-18T16:39:30.036Z,8.93
2022-10-18T16:41:58.464Z,7.13
2022-10-18T16:44:26.883Z,13.18
2022-10-18T16:46:56.498Z,8.73
2022-10-18T16:49:26.694Z,9.52
2022-10-18T16:51:55.691Z,7.82
2022-10-18T16:54:24.219Z,9.20
2022-10-18T16:56:52.754Z,8.85
2022-10-18T16:59:26.228Z,10.43
2022-10-18T17:01:56.033Z,9.57
2022-10-18T17:04:24.385Z,13.25
2022-10-18T17:06:54.111Z,11.02
2022-10-18T17:09:22.282Z,13.82
2022-10-18T17:11:51.252Z,7.38
2022-10-18T17:14:19.405Z,9.68
2022-10-18T17:16:50.812Z,10.95
2022-10-18T17:19:24.260Z,11.40
2022-10-18T17:21:52.375Z,10.23
2022-10-18T17:24:20.583Z,6.80
2022-10-18T17:26:48.903Z,10.63
2022-10-18T17:29:17.255Z,7.05
2022-10-18T17:31:45.785Z,10.05
2022-10-18T17:34:17.560Z,16.08
2022-10-18T17:36:49.752Z,8.57
2022-10-18T17:39:17.952Z,11.52
2022-10-18T17:41:46.153Z,9.17
2022-10-18T17:44:14.455Z,11.00
2022-10-18T17:46:43.185Z,12.98
2022-10-18T17:49:11.635Z,11.50
2022-10-18T17:51:41.123Z,8.73
2022-10-18T17:54:10.878Z,12.13
2022-10-18T17:56:40.119Z,15.32
2022-10-18T17:59:08.615Z,10.73
2022-10-18T18:01:37.009Z,8.73
2022-10-18T18:04:05.517Z,15.68
2022-10-18T18:06:36.361Z,11.25
2022-10-18T18:09:07.285Z,13.35
2022-10-18T18:11:38.295Z,12.90
2022-10-18T18:14:09.128Z,6.93
2022-10-18T18:16:39.191Z,9.93
2022-10-18T18:19:09.863Z,13.20
2022-10-18T18:21:38.532Z,15.15
2022-10-18T18:24:06.984Z,8.90
2022-10-18T18:26:37.454Z,11.55
2022-10-18T18:29:06.085Z,12.98
2022-10-18T18:31:38.744Z,11.95
2022-10-18T18:34:10.791Z,14.60
2022-10-18T18:36:39.803Z,18.65
2022-10-18T18:39:08.942Z,12.43
2022-10-18T18:41:38.724Z,17.15
2022-10-18T18:44:07.749Z,10.68
2022-10-18T18:46:38.846Z,8.73
2022-10-18T18:49:07.948Z,9.00
2022-10-18T18:51:38.082Z,11.07
2022-10-18T18:54:06.592Z,8.30
2022-10-18T18:56:35.204Z,7.13
2022-10-18T18:59:05.106Z,10.48
2022-10-18T19:01:34.760Z,6.90
2022-10-18T19:04:03.790Z,11.57
2022-10-18T19:06:34.357Z,14.57
2022-10-18T19:09:04.645Z,11.35
2022-10-18T19:11:35.685Z,11.35
2022-10-18T19:14:06.290Z,10.77
2022-10-18T19:16:35.405Z,11.55
2022-10-18T19:19:06.169Z,12.10
2022-10-18T19:21:36.035Z,8.25
2022-10-18T19:24:04.865Z,11.48
2022-10-18T19:26:36.689Z,7.30
2022-10-18T19:29:09.850Z,9.73
2022-10-18T19:31:39.143Z,14.05
2022-10-18T19:34:09.434Z,14.73
2022-10-18T19:36:39.022Z,13.95
2022-10-18T19:39:09.011Z,11.57
2022-10-18T19:41:37.230Z,9.52
2022-10-18T19:44:07.404Z,7.63
2022-10-18T19:46:36.049Z,11.07
2022-10-18T19:49:04.232Z,9.30
2022-10-18T19:51:32.541Z,7.23
2022-10-18T19:54:00.863Z,12.85
2022-10-18T19:56:30.179Z,10.73
2022-10-18T19:58:59.608Z,9.43
2022-10-18T20:01:30.417Z,13.88
2022-10-18T20:03:58.961Z,11.70
2022-10-18T20:06:27.661Z,16.50
2022-10-18T20:08:56.349Z,13.03
2022-10-18T20:11:26.523Z,10.03
2022-10-18T20:13:54.869Z,13.57
2022-10-18T20:16:28.296Z,13.20
2022-10-18T20:18:59.633Z,11.47
2022-10-18T20:21:29.419Z,17.33
2022-10-18T20:23:57.726Z,10.37
2022-10-18T20:26:26.506Z,14.40
2022-10-18T20:28:57.782Z,12.13
2022-10-18T20:31:27.491Z,12.13
2022-10-18T20:33:58.660Z,13.50
2022-10-18T20:36:27.549Z,11.83
2022-10-18T20:38:56.267Z,9.80
2022-10-18T20:41:26.677Z,17.43
2022-10-18T20:43:55.871Z,8.37
2022-10-18T20:46:24.568Z,15.77
2022-10-18T20:48:54.218Z,16.27
2022-10-18T20:51:23.849Z,12.13
2022-10-18T20:53:52.265Z,12.10
2022-10-18T20:56:21.901Z,16.60
2022-10-18T20:58:51.541Z,12.33
2022-10-18T21:01:21.716Z,9.87
2022-10-18T21:03:51.172Z,18.63
2022-10-18T21:06:21.517Z,15.37
2022-10-18T21:08:54.572Z,11.70
2022-10-18T21:11:23.627Z,10.93
2022-10-18T21:13:52.755Z,10.13
2022-10-18T21:16:20.974Z,18.40
2022-10-18T21:18:50.125Z,10.33
2022-10-18T21:21:19.733Z,10.67
2022-10-18T21:23:48.302Z,10.57
2022-10-18T21:26:19.996Z,13.97
2022-10-18T21:28:48.799Z,13.43
2022-10-18T21:31:19.519Z,8.33
2022-10-18T21:33:48.097Z,15.87
2022-10-18T21:36:16.629Z,10.80
2022-10-18T21:38:46.605Z,12.43
2022-10-18T21:41:16.414Z,19.97
2022-10-18T21:43:47.613Z,12.83
2022-10-18T21:46:17.668Z,17.17
2022-10-18T21:48:47.874Z,12.50
2022-10-18T21:51:18.460Z,14.93
2022-10-18T21:53:47.826Z,13.37
2022-10-18T21:56:17.465Z,13.17
2022-10-18T21:58:47.193Z,19.63
2022-10-18T22:01:17.148Z,12.50
2022-10-18T22:03:46.560Z,12.43
2022-10-18T22:06:16.475Z,10.77
2022-10-18T22:08:46.677Z,14.47
2022-10-18T22:11:15.409Z,13.67
2022-10-18T22:13:43.973Z,15.10
2022-10-18T22:16:16.103Z,8.43
2022-10-18T22:18:45.503Z,13.80
2022-10-18T22:21:15.835Z,14.43
2022-10-18T22:23:46.292Z,11.70
2022-10-18T22:26:16.454Z,14.17
2022-10-18T22:28:45.896Z,13.07
2022-10-18T22:31:20.389Z,14.60
2022-10-18T22:33:53.051Z,14.53
2022-10-18T22:36:21.428Z,13.53
2022-10-18T22:38:49.661Z,15.17
2022-10-18T22:41:18.115Z,15.67
2022-10-18T22:43:47.637Z,10.80
2022-10-18T22:46:16.425Z,16.77
2022-10-18T22:48:46.449Z,14.27
2022-10-18T22:51:14.796Z,14.47
2022-10-18T22:53:43.119Z,15.00
2022-10-18T22:56:13.822Z,13.20
2022-10-18T22:58:42.139Z,12.37
2022-10-18T23:01:12.199Z,14.90
2022-10-18T23:03:41.094Z,14.27
2022-10-18T23:06:21.025Z,16.80
2022-10-18T23:08:49.332Z,11.80
2022-10-18T23:11:18.125Z,15.70
2022-10-18T23:13:46.409Z,18.67
2022-10-18T23:16:15.099Z,13.30
2022-10-18T23:18:43.580Z,12.83
2022-10-18T23:21:13.310Z,17.00
2022-10-18T23:23:43.828Z,11.93
2022-10-18T23:26:13.871Z,16.67
2022-10-18T23:28:43.481Z,10.03
2022-10-18T23:31:13.555Z,16.00
2022-10-18T23:33:42.310Z,17.60
2022-10-18T23:36:11.201Z,17.57
2022-10-18T23:38:40.330Z,14.80
2022-10-18T23:41:11.943Z,16.67
2022-10-18T23:43:40.625Z,17.90
2022-10-18T23:46:09.698Z,18.10
2022-10-18T23:48:38.189Z,16.83
2022-10-18T23:51:06.776Z,21.63
2022-10-18T23:53:35.835Z,19.57
2022-10-18T23:56:06.154Z,15.67
2022-10-18T23:58:36.874Z,14.37
